地図

経路データ

SID SEASON NUMBER BASIN SUBBASIN NAME ISO_TIME NATURE LAT LON WMO_WIND WMO_PRES WMO_AGENCY TRACK_TYPE DIST2LAND LANDFALL IFLAG USA_AGENCY USA_ATCF_ID USA_LAT USA_LON USA_RECORD USA_STATUS USA_WIND USA_PRES USA_SSHS USA_R34_NE USA_R34_SE USA_R34_SW USA_R34_NW USA_R50_NE USA_R50_SE USA_R50_SW USA_R50_NW USA_R64_NE USA_R64_SE USA_R64_SW USA_R64_NW USA_POCI USA_ROCI USA_RMW USA_EYE TOKYO_LAT TOKYO_LON TOKYO_GRADE TOKYO_WIND TOKYO_PRES TOKYO_R50_DIR TOKYO_R50_LONG TOKYO_R50_SHORT TOKYO_R30_DIR TOKYO_R30_LONG TOKYO_R30_SHORT TOKYO_LAND CMA_LAT CMA_LON CMA_CAT CMA_WIND CMA_PRES HKO_LAT HKO_LON HKO_CAT HKO_WIND HKO_PRES NEWDELHI_LAT NEWDELHI_LON NEWDELHI_GRADE NEWDELHI_WIND NEWDELHI_PRES NEWDELHI_CI NEWDELHI_DP NEWDELHI_POCI REUNION_LAT REUNION_LON REUNION_TYPE REUNION_WIND REUNION_PRES REUNION_TNUM REUNION_CI REUNION_RMW REUNION_R34_NE REUNION_R34_SE REUNION_R34_SW REUNION_R34_NW REUNION_R50_NE REUNION_R50_SE REUNION_R50_SW REUNION_R50_NW REUNION_R64_NE REUNION_R64_SE REUNION_R64_SW REUNION_R64_NW BOM_LAT BOM_LON BOM_TYPE BOM_WIND BOM_PRES BOM_TNUM BOM_CI BOM_RMW BOM_R34_NE BOM_R34_SE BOM_R34_SW BOM_R34_NW BOM_R50_NE BOM_R50_SE BOM_R50_SW BOM_R50_NW BOM_R64_NE BOM_R64_SE BOM_R64_SW BOM_R64_NW BOM_ROCI BOM_POCI BOM_EYE BOM_POS_METHOD BOM_PRES_METHOD NADI_LAT NADI_LON NADI_CAT NADI_WIND NADI_PRES WELLINGTON_LAT WELLINGTON_LON WELLINGTON_WIND WELLINGTON_PRES DS824_LAT DS824_LON DS824_STAGE DS824_WIND DS824_PRES TD9636_LAT TD9636_LON TD9636_STAGE TD9636_WIND TD9636_PRES TD9635_LAT TD9635_LON TD9635_WIND TD9635_PRES TD9635_ROCI NEUMANN_LAT NEUMANN_LON NEUMANN_CLASS NEUMANN_WIND NEUMANN_PRES MLC_LAT MLC_LON MLC_CLASS MLC_WIND MLC_PRES USA_GUST BOM_GUST BOM_GUST_PER REUNION_GUST REUNION_GUST_PER USA_SEAHGT USA_SEARAD_NE USA_SEARAD_SE USA_SEARAD_SW USA_SEARAD_NW STORM_SPEED STORM_DIR
1924326N12138 1924 52 WP MM NOT_NAMED 1924-11-20 22:00:00 NR 11.5000 138.200 main 1337 1327 __________O___ -1 11.5000 138.200 2 3 279
1924326N12138 1924 52 WP MM NOT_NAMED 1924-11-21 00:00:00 NR 11.5178 138.086 main 1327 1305 __________P___ -1 11.5178 138.086 2 3 279
1924326N12138 1924 52 WP MM NOT_NAMED 1924-11-21 03:00:00 NR 11.5441 137.920 main 1305 1297 __________P___ -1 11.5441 137.920 2 3 279
1924326N12138 1924 52 WP MM NOT_NAMED 1924-11-21 06:00:00 NR 11.5693 137.768 main 1297 1276 __________P___ -1 11.5693 137.768 2 3 280
1924326N12138 1924 52 WP MM NOT_NAMED 1924-11-21 09:00:00 NR 11.5927 137.637 main 1276 1276 __________P___ -1 11.5927 137.637 2 3 281
1924326N12138 1924 52 WP MM NOT_NAMED 1924-11-21 10:00:00 NR 11.6000 137.600 main 1276 1265 __________O___ -1 11.6000 137.600 2 2 283
1924326N12138 1924 52 WP MM NOT_NAMED 1924-11-21 12:00:00 NR 11.6140 137.535 main 1265 1265 __________P___ -1 11.6140 137.535 2 2 283
1924326N12138 1924 52 WP MM NOT_NAMED 1924-11-21 15:00:00 NR 11.6349 137.450 main 1265 1254 __________P___ -1 11.6349 137.450 2 2 285
1924326N12138 1924 52 WP MM NOT_NAMED 1924-11-21 18:00:00 NR 11.6586 137.362 main 1257 1235 __________P___ -1 11.6586 137.362 2 2 285
1924326N12138 1924 52 WP MM NOT_NAMED 1924-11-21 21:00:00 NR 11.6883 137.248 main 1235 1235 __________P___ -1 11.6883 137.248 2 2 285
1924326N12138 1924 52 WP MM NOT_NAMED 1924-11-21 22:00:00 NR 11.7000 137.200 main 1235 1225 __________O___ -1 11.7000 137.200 2 3 282
1924326N12138 1924 52 WP MM NOT_NAMED 1924-11-22 00:00:00 NR 11.7250 137.079 main 1225 1206 __________P___ -1 11.7250 137.079 2 4 282
1924326N12138 1924 52 WP MM NOT_NAMED 1924-11-22 03:00:00 NR 11.7688 136.865 main 1206 1174 __________P___ -1 11.7688 136.865 2 5 282
1924326N12138 1924 52 WP MM NOT_NAMED 1924-11-22 06:00:00 NR 11.8201 136.627 main 1174 1155 __________P___ -1 11.8201 136.627 2 5 283
1924326N12138 1924 52 WP MM NOT_NAMED 1924-11-22 09:00:00 NR 11.8788 136.381 main 1155 1145 __________P___ -1 11.8788 136.381 2 5 284
1924326N12138 1924 52 WP MM NOT_NAMED 1924-11-22 10:00:00 NR 11.9000 136.300 main 1145 1134 __________O___ -1 11.9000 136.300 2 5 287
1924326N12138 1924 52 WP MM NOT_NAMED 1924-11-22 12:00:00 NR 11.9468 136.155 main 1134 1106 __________P___ -1 11.9468 136.155 2 5 289
1924326N12138 1924 52 WP MM NOT_NAMED 1924-11-22 15:00:00 NR 12.0235 135.938 main 1106 1086 __________P___ -1 12.0235 135.938 2 5 290
1924326N12138 1924 52 WP MM NOT_NAMED 1924-11-22 18:00:00 NR 12.1023 135.716 main 1086 1065 __________P___ -1 12.1023 135.716 2 5 289
1924326N12138 1924 52 WP MM NOT_NAMED 1924-11-22 21:00:00 NR 12.1771 135.482 main 1065 1054 __________P___ -1 12.1771 135.482 2 5 288
1924326N12138 1924 52 WP MM NOT_NAMED 1924-11-22 22:00:00 NR 12.2000 135.400 main 1054 1033 __________O___ -1 12.2000 135.400 2 5 284
1924326N12138 1924 52 WP MM NOT_NAMED 1924-11-23 00:00:00 NR 12.2364 135.228 main 1033 1013 __________P___ -1 12.2364 135.228 2 5 281
1924326N12138 1924 52 WP MM NOT_NAMED 1924-11-23 03:00:00 NR 12.2847 134.957 main 1013 980 __________P___ -1 12.2847 134.957 2 5 280
1924326N12138 1924 52 WP MM NOT_NAMED 1924-11-23 06:00:00 NR 12.3308 134.677 main 980 950 __________P___ -1 12.3308 134.677 2 6 280
1924326N12138 1924 52 WP MM NOT_NAMED 1924-11-23 09:00:00 NR 12.3812 134.394 main 950 939 __________P___ -1 12.3812 134.394 2 6 281
1924326N12138 1924 52 WP MM NOT_NAMED 1924-11-23 10:00:00 NR 12.4000 134.300 main 939 917 __________O___ -1 12.4000 134.300 2 6 282
1924326N12138 1924 52 WP MM NOT_NAMED 1924-11-23 12:00:00 NR 12.4416 134.113 main 917 887 __________P___ -1 12.4416 134.113 2 6 284
1924326N12138 1924 52 WP MM NOT_NAMED 1924-11-23 15:00:00 NR 12.5123 133.837 main 887 868 __________P___ -1 12.5123 133.837 2 6 285
1924326N12138 1924 52 WP MM NOT_NAMED 1924-11-23 18:00:00 NR 12.5903 133.563 main 868 838 __________P___ -1 12.5903 133.563 2 6 287
1924326N12138 1924 52 WP MM NOT_NAMED 1924-11-23 21:00:00 NR 12.6723 133.291 main 838 827 __________P___ -1 12.6723 133.291 2 6 287
1924326N12138 1924 52 WP MM NOT_NAMED 1924-11-23 22:00:00 NR 12.7000 133.200 main 827 __________O___ -1 12.7000 133.200 2 6 288

デジタル台風データ・検索

IBTrACS Databaseについて

本データベースは、米国NOAAが公開する1842年以降の世界の熱帯低気圧のベストトラックデータアーカイブInternational Best Track Archive for Climate Stewardship (IBTrACS)を、ウェブで閲覧しやすい形式に変換したものです。

最終更新日:2021-11-26